createdAt,value
2023-05-03T00:01:28.041Z,72.13
2023-05-03T00:06:28.063Z,71.41
2023-05-03T00:11:27.907Z,71.62
2023-05-03T00:16:27.825Z,71.45
2023-05-03T00:21:27.819Z,71.04
2023-05-03T00:26:27.623Z,71.28
2023-05-03T00:31:30.750Z,71.37
2023-05-03T00:36:27.514Z,71.58
2023-05-03T00:41:27.562Z,71.58
2023-05-03T00:46:27.408Z,73.19
2023-05-03T00:51:27.388Z,74.74
2023-05-03T00:56:28.267Z,75.22
2023-05-03T01:01:27.359Z,75.26
2023-05-03T01:06:27.202Z,75.49
2023-05-03T01:11:27.193Z,75.60
2023-05-03T01:16:27.088Z,74.74
2023-05-03T01:21:26.963Z,74.74
2023-05-03T01:26:26.890Z,74.98
2023-05-03T01:31:29.920Z,74.84
2023-05-03T01:36:26.767Z,77.01
2023-05-03T01:41:34.577Z,77.15
2023-05-03T01:46:26.792Z,75.98
2023-05-03T01:51:26.560Z,76.22
2023-05-03T01:56:26.490Z,76.95
2023-05-03T02:01:26.453Z,77.19
2023-05-03T02:06:26.417Z,76.95
2023-05-03T02:11:26.312Z,78.05
2023-05-03T02:16:26.343Z,79.47
2023-05-03T02:21:26.234Z,79.68
2023-05-03T02:26:26.062Z,80.13
2023-05-03T02:31:29.230Z,79.92
2023-05-03T02:36:26.049Z,81.30
2023-05-03T02:41:26.000Z,80.85
2023-05-03T02:46:26.101Z,80.96
2023-05-03T02:51:26.364Z,80.65
2023-05-03T02:56:25.896Z,80.54
2023-05-03T03:01:25.906Z,80.51
2023-05-03T03:06:25.657Z,79.95
2023-05-03T03:11:25.642Z,80.05
2023-05-03T03:16:25.494Z,81.02
2023-05-03T03:21:25.413Z,80.71
2023-05-03T03:26:25.312Z,81.44
2023-05-03T03:31:28.305Z,81.02
2023-05-03T03:36:25.342Z,81.85
2023-05-03T03:41:25.251Z,80.57
2023-05-03T03:46:25.234Z,80.68
2023-05-03T03:51:25.051Z,80.88
2023-05-03T03:56:25.066Z,80.26
2023-05-03T04:01:25.468Z,80.85
2023-05-03T04:06:24.936Z,80.57
2023-05-03T04:11:24.794Z,79.71
2023-05-03T04:16:32.639Z,79.09
2023-05-03T04:21:24.719Z,77.33
2023-05-03T04:26:31.907Z,74.88
2023-05-03T04:31:28.746Z,73.91
2023-05-03T04:36:24.513Z,76.56
2023-05-03T04:41:24.449Z,75.98
2023-05-03T04:46:24.446Z,72.88
2023-05-03T04:51:24.236Z,65.37
2023-05-03T04:56:24.122Z,60.52
2023-05-03T05:01:24.151Z,59.47
2023-05-03T05:06:24.062Z,59.00
2023-05-03T05:11:24.204Z,56.07
2023-05-03T05:16:23.981Z,60.24
2023-05-03T05:21:24.030Z,59.72
2023-05-03T05:26:23.744Z,59.85
2023-05-03T05:31:26.862Z,59.62
2023-05-03T05:36:23.683Z,58.14
2023-05-03T05:41:23.599Z,54.61
2023-05-03T05:46:23.531Z,54.57
2023-05-03T05:51:23.607Z,53.14
2023-05-03T05:56:23.452Z,50.86
2023-05-03T06:01:23.353Z,48.13
2023-05-03T06:06:23.305Z,46.72
2023-05-03T06:11:23.285Z,46.56
2023-05-03T06:16:23.107Z,46.26
2023-05-03T06:21:23.242Z,43.40
2023-05-03T06:26:23.080Z,43.63
2023-05-03T06:31:26.060Z,40.50
2023-05-03T06:36:22.896Z,43.10
2023-05-03T06:41:22.801Z,41.89
2023-05-03T06:46:30.657Z,38.55
2023-05-03T06:51:30.160Z,37.65
2023-05-03T06:56:22.644Z,37.37
2023-05-03T07:01:22.638Z,38.17
2023-05-03T07:06:22.476Z,37.17
2023-05-03T07:11:22.411Z,36.41
2023-05-03T07:16:22.411Z,35.48
2023-05-03T07:21:22.306Z,35.71
2023-05-03T07:26:22.615Z,34.36
2023-05-03T07:31:25.224Z,34.33
2023-05-03T07:36:22.177Z,39.25
2023-05-03T07:41:22.141Z,42.46
2023-05-03T07:46:21.945Z,36.10
2023-05-03T07:51:21.896Z,39.48
2023-05-03T07:56:21.786Z,45.21
2023-05-03T08:01:21.753Z,40.42
2023-05-03T08:06:21.693Z,43.98
2023-05-03T08:11:21.752Z,44.51
2023-05-03T08:16:21.636Z,46.78
2023-05-03T08:21:21.519Z,45.59
2023-05-03T08:26:21.458Z,47.24
2023-05-03T08:31:25.183Z,46.68
2023-05-03T08:36:21.308Z,50.49
2023-05-03T08:41:21.479Z,47.01
2023-05-03T08:46:21.163Z,48.86
2023-05-03T08:51:21.229Z,47.92
2023-05-03T08:56:21.017Z,47.88
2023-05-03T09:01:21.134Z,48.41
2023-05-03T09:06:20.908Z,49.27
2023-05-03T09:11:21.051Z,47.90
2023-05-03T09:16:20.815Z,50.21
2023-05-03T09:21:20.924Z,47.64
2023-05-03T09:26:20.614Z,47.90
2023-05-03T09:31:23.681Z,49.50
2023-05-03T09:36:20.614Z,50.06
2023-05-03T09:41:21.235Z,49.40
2023-05-03T09:46:20.415Z,50.01
2023-05-03T09:51:20.505Z,48.94
2023-05-03T09:56:20.243Z,51.10
2023-05-03T10:01:20.235Z,51.13
2023-05-03T10:06:20.212Z,50.82
2023-05-03T10:11:20.117Z,50.95
2023-05-03T10:16:20.197Z,50.87
2023-05-03T10:21:19.947Z,50.49
2023-05-03T10:26:19.928Z,49.96
2023-05-03T10:31:22.965Z,48.49
2023-05-03T10:36:19.878Z,48.03
2023-05-03T10:41:19.828Z,47.72
2023-05-03T10:46:19.621Z,48.36
2023-05-03T10:51:20.519Z,48.43
2023-05-03T10:56:19.785Z,48.08
2023-05-03T11:01:19.501Z,49.40
2023-05-03T11:06:19.361Z,48.04
2023-05-03T11:11:19.410Z,47.18
2023-05-03T11:16:19.340Z,46.53
2023-05-03T11:21:19.353Z,47.05
2023-05-03T11:26:19.077Z,48.11
2023-05-03T11:31:22.109Z,48.57
2023-05-03T11:36:19.120Z,47.00
2023-05-03T11:41:18.929Z,47.30
2023-05-03T11:46:18.873Z,47.58
2023-05-03T11:51:18.843Z,47.43
2023-05-03T11:56:18.737Z,46.51
2023-05-03T12:01:20.004Z,47.13
2023-05-03T12:06:19.362Z,45.98
2023-05-03T12:11:20.763Z,46.25
2023-05-03T12:16:18.852Z,45.76
2023-05-03T12:26:19.043Z,44.65
2023-05-03T12:31:22.839Z,45.36
2023-05-03T12:36:21.136Z,46.31
2023-05-03T12:46:34.041Z,45.56
2023-05-03T12:51:21.132Z,45.54
2023-05-03T12:56:22.243Z,44.20
2023-05-03T13:02:05.335Z,42.86
2023-05-03T13:06:19.165Z,44.20
2023-05-03T13:11:18.672Z,43.85
2023-05-03T13:16:17.707Z,45.50
2023-05-03T13:21:17.764Z,44.56
2023-05-03T13:26:17.530Z,44.99
2023-05-03T13:31:20.696Z,44.30
2023-05-03T13:36:17.403Z,44.60
2023-05-03T13:41:17.395Z,45.09
2023-05-03T13:46:17.318Z,44.48
2023-05-03T13:51:17.373Z,45.13
2023-05-03T13:56:17.130Z,44.50
2023-05-03T14:01:17.170Z,44.27
2023-05-03T14:06:17.085Z,43.77
2023-05-03T14:11:17.164Z,43.99
2023-05-03T14:16:21.788Z,43.26
2023-05-03T14:21:18.309Z,44.01
2023-05-03T14:26:24.181Z,42.13
2023-05-03T14:31:19.761Z,42.09
2023-05-03T14:36:16.814Z,42.58
2023-05-03T14:41:16.533Z,41.42
2023-05-03T14:46:16.637Z,41.30
2023-05-03T14:51:16.397Z,40.16
2023-05-03T14:56:16.360Z,41.16
2023-05-03T15:01:16.347Z,41.71
2023-05-03T15:08:28.250Z,40.59
2023-05-03T15:13:28.251Z,41.20
2023-05-03T15:18:29.081Z,41.28
2023-05-03T15:23:27.982Z,41.83
2023-05-03T15:28:28.592Z,42.58
2023-05-03T15:33:27.812Z,42.76
2023-05-03T15:38:28.052Z,43.93
2023-05-03T15:43:27.553Z,44.84
2023-05-03T15:48:28.065Z,45.62
2023-05-03T15:53:27.507Z,46.51
2023-05-03T15:58:30.376Z,47.02
2023-05-03T16:03:27.370Z,47.87
2023-05-03T16:08:27.374Z,47.03
2023-05-03T16:13:27.264Z,46.94
2023-05-03T16:18:27.558Z,47.24
2023-05-03T16:23:26.982Z,46.95
2023-05-03T16:28:27.306Z,47.62
2023-05-03T16:33:27.010Z,48.15
2023-05-03T16:38:26.859Z,48.66
2023-05-03T16:43:26.784Z,47.85
2023-05-03T16:48:26.936Z,48.46
2023-05-03T16:53:26.805Z,48.15
2023-05-03T16:58:29.584Z,47.77
2023-05-03T17:03:26.937Z,49.11
2023-05-03T17:08:26.709Z,48.91
2023-05-03T17:13:26.432Z,48.27
2023-05-03T17:18:26.316Z,49.11
2023-05-03T17:23:28.584Z,48.93
2023-05-03T17:28:26.179Z,48.91
2023-05-03T17:33:26.325Z,49.44
2023-05-03T17:38:26.061Z,49.95
2023-05-03T17:43:25.943Z,49.36
2023-05-03T17:48:26.073Z,49.13
2023-05-03T17:53:26.073Z,49.38
2023-05-03T17:58:28.801Z,49.28
2023-05-03T18:03:25.984Z,51.14
2023-05-03T18:08:25.804Z,50.93
2023-05-03T18:13:25.651Z,50.95
2023-05-03T18:18:25.654Z,51.08
2023-05-03T18:23:25.433Z,51.26
2023-05-03T18:28:25.479Z,51.59
2023-05-03T18:33:25.301Z,52.50
2023-05-03T18:38:25.368Z,52.53
2023-05-03T18:43:25.184Z,52.76
2023-05-03T18:48:25.303Z,52.83
2023-05-03T18:53:25.001Z,55.05
2023-05-03T18:58:28.030Z,57.14
2023-05-03T19:03:25.131Z,58.86
2023-05-03T19:08:24.948Z,59.50
2023-05-03T19:13:25.050Z,60.68
2023-05-03T19:18:29.895Z,61.32
2023-05-03T19:23:25.498Z,61.63
2023-05-03T19:28:24.682Z,62.68
2023-05-03T19:33:24.582Z,65.03
2023-05-03T19:38:25.863Z,65.98
2023-05-03T19:43:24.355Z,66.08
2023-05-03T19:48:24.355Z,66.83
2023-05-03T19:53:25.141Z,68.13
2023-05-03T19:58:28.138Z,69.18
2023-05-03T20:03:24.335Z,70.76
2023-05-03T20:08:24.307Z,70.90
2023-05-03T20:13:25.022Z,70.90
2023-05-03T20:18:24.128Z,71.20
2023-05-03T20:23:23.882Z,71.96
2023-05-03T20:28:23.885Z,71.96
2023-05-03T20:33:23.773Z,72.20
2023-05-03T20:38:23.835Z,73.16
2023-05-03T20:43:23.693Z,73.57
2023-05-03T20:48:23.969Z,73.98
2023-05-03T20:53:23.539Z,73.68
2023-05-03T20:58:26.640Z,73.98
2023-05-03T21:03:23.495Z,74.98
2023-05-03T21:08:23.653Z,74.43
2023-05-03T21:13:23.429Z,74.77
2023-05-03T21:18:23.217Z,74.88
2023-05-03T21:23:23.170Z,76.04
2023-05-03T21:28:23.124Z,75.18
2023-05-03T21:33:23.173Z,75.43
2023-05-03T21:38:23.152Z,75.49
2023-05-03T21:43:22.859Z,76.39
2023-05-03T21:48:22.996Z,77.04
2023-05-03T21:53:23.029Z,77.36
2023-05-03T21:58:26.098Z,77.42
2023-05-03T22:03:22.831Z,77.87
2023-05-03T22:08:22.836Z,77.46
2023-05-03T22:13:22.547Z,78.11
2023-05-03T22:18:23.441Z,78.42
2023-05-03T22:23:22.828Z,78.11
2023-05-03T22:28:22.344Z,78.56
2023-05-03T22:33:22.338Z,79.43
2023-05-03T22:38:22.199Z,78.77
2023-05-03T22:43:22.043Z,78.88
2023-05-03T22:48:22.062Z,78.25
2023-05-03T22:53:22.046Z,78.77
2023-05-03T22:58:25.051Z,79.63
2023-05-03T23:03:21.915Z,80.60
2023-05-03T23:08:21.783Z,80.40
2023-05-03T23:13:21.739Z,79.94
2023-05-03T23:18:21.826Z,79.22
2023-05-03T23:23:21.703Z,80.08
2023-05-03T23:28:21.798Z,81.05
2023-05-03T23:33:21.724Z,79.98
2023-05-03T23:38:21.559Z,80.54
2023-05-03T23:43:21.428Z,79.98
2023-05-03T23:48:21.380Z,80.85
2023-05-03T23:53:21.327Z,80.74
2023-05-03T23:58:24.217Z,81.51
